sensor_id;sensor_type;location;lat;lon;timestamp;temperature;humidity
59148;DHT22;44930;52.878;6.168;2023-02-12T00:01:29;4.40;99.90
59148;DHT22;44930;52.878;6.168;2023-02-12T00:03:55;4.50;99.90
59148;DHT22;44930;52.878;6.168;2023-02-12T00:06:21;4.40;99.90
59148;DHT22;44930;52.878;6.168;2023-02-12T00:08:51;4.50;99.90
59148;DHT22;44930;52.878;6.168;2023-02-12T00:11:20;4.50;99.90
59148;DHT22;44930;52.878;6.168;2023-02-12T00:13:47;4.40;99.90
59148;DHT22;44930;52.878;6.168;2023-02-12T00:18:40;4.50;99.90
59148;DHT22;44930;52.878;6.168;2023-02-12T00:21:06;4.80;99.90
59148;DHT22;44930;52.878;6.168;2023-02-12T00:23:36;4.90;99.90
59148;DHT22;44930;52.878;6.168;2023-02-12T00:26:17;4.80;99.90
59148;DHT22;44930;52.878;6.168;2023-02-12T00:28:43;5.10;99.90
59148;DHT22;44930;52.878;6.168;2023-02-12T00:31:11;5.00;99.90
59148;DHT22;44930;52.878;6.168;2023-02-12T00:33:37;5.10;99.90
59148;DHT22;44930;52.878;6.168;2023-02-12T00:36:03;5.00;99.90
59148;DHT22;44930;52.878;6.168;2023-02-12T00:38:29;5.00;99.90
59148;DHT22;44930;52.878;6.168;2023-02-12T00:43:21;4.90;99.90
59148;DHT22;44930;52.878;6.168;2023-02-12T00:48:14;5.10;99.90
59148;DHT22;44930;52.878;6.168;2023-02-12T00:50:39;5.10;99.90
59148;DHT22;44930;52.878;6.168;2023-02-12T00:55:34;4.90;99.90
59148;DHT22;44930;52.878;6.168;2023-02-12T00:57:59;5.20;99.90
59148;DHT22;44930;52.878;6.168;2023-02-12T01:02:51;5.10;99.90
59148;DHT22;44930;52.878;6.168;2023-02-12T01:05:17;5.10;99.90
59148;DHT22;44930;52.878;6.168;2023-02-12T01:07:48;5.20;99.90
59148;DHT22;44930;52.878;6.168;2023-02-12T01:10:13;4.90;99.90
59148;DHT22;44930;52.878;6.168;2023-02-12T01:12:39;5.10;99.90
59148;DHT22;44930;52.878;6.168;2023-02-12T01:17:31;5.10;99.90
59148;DHT22;44930;52.878;6.168;2023-02-12T01:19:57;5.10;99.90
59148;DHT22;44930;52.878;6.168;2023-02-12T01:22:24;5.00;99.90
59148;DHT22;44930;52.878;6.168;2023-02-12T01:27:15;5.10;99.90
59148;DHT22;44930;52.878;6.168;2023-02-12T01:29:41;5.10;99.90
59148;DHT22;44930;52.878;6.168;2023-02-12T01:32:09;5.00;99.90
59148;DHT22;44930;52.878;6.168;2023-02-12T01:34:36;5.10;99.90
59148;DHT22;44930;52.878;6.168;2023-02-12T01:37:01;5.10;99.90
59148;DHT22;44930;52.878;6.168;2023-02-12T01:39:27;5.00;99.90
59148;DHT22;44930;52.878;6.168;2023-02-12T01:41:52;5.00;99.90
59148;DHT22;44930;52.878;6.168;2023-02-12T01:44:21;5.10;99.90
59148;DHT22;44930;52.878;6.168;2023-02-12T01:46:55;5.00;99.90
59148;DHT22;44930;52.878;6.168;2023-02-12T01:49:21;5.00;99.90
59148;DHT22;44930;52.878;6.168;2023-02-12T01:51:52;5.10;99.90
59148;DHT22;44930;52.878;6.168;2023-02-12T01:54:21;4.90;99.90
59148;DHT22;44930;52.878;6.168;2023-02-12T01:56:50;5.00;99.90
59148;DHT22;44930;52.878;6.168;2023-02-12T01:59:16;5.10;99.90
59148;DHT22;44930;52.878;6.168;2023-02-12T02:01:42;5.10;99.90
59148;DHT22;44930;52.878;6.168;2023-02-12T02:04:12;5.20;99.90
59148;DHT22;44930;52.878;6.168;2023-02-12T02:06:56;5.20;99.90
59148;DHT22;44930;52.878;6.168;2023-02-12T02:09:23;5.00;99.90
59148;DHT22;44930;52.878;6.168;2023-02-12T02:11:49;5.00;99.90
59148;DHT22;44930;52.878;6.168;2023-02-12T02:14:34;5.00;99.90
59148;DHT22;44930;52.878;6.168;2023-02-12T02:25:47;5.00;99.90
59148;DHT22;44930;52.878;6.168;2023-02-12T02:31:03;4.80;99.90
59148;DHT22;44930;52.878;6.168;2023-02-12T02:36:43;5.00;99.90
59148;DHT22;44930;52.878;6.168;2023-02-12T02:39:27;5.00;99.90
59148;DHT22;44930;52.878;6.168;2023-02-12T02:42:02;4.60;99.90
59148;DHT22;44930;52.878;6.168;2023-02-12T02:44:36;5.30;99.90
59148;DHT22;44930;52.878;6.168;2023-02-12T02:47:06;5.00;99.90
59148;DHT22;44930;52.878;6.168;2023-02-12T02:49:45;5.30;99.90
59148;DHT22;44930;52.878;6.168;2023-02-12T02:52:17;5.00;99.90
59148;DHT22;44930;52.878;6.168;2023-02-12T02:54:48;5.00;99.90
59148;DHT22;44930;52.878;6.168;2023-02-12T02:57:18;5.10;99.90
59148;DHT22;44930;52.878;6.168;2023-02-12T02:59:49;5.00;99.90
59148;DHT22;44930;52.878;6.168;2023-02-12T03:02:17;5.00;99.90
59148;DHT22;44930;52.878;6.168;2023-02-12T03:04:51;5.10;99.90
59148;DHT22;44930;52.878;6.168;2023-02-12T03:07:20;5.00;99.90
59148;DHT22;44930;52.878;6.168;2023-02-12T03:12:45;4.90;99.90
59148;DHT22;44930;52.878;6.168;2023-02-12T03:17:58;5.10;99.90
59148;DHT22;44930;52.878;6.168;2023-02-12T03:20:29;5.00;99.90
59148;DHT22;44930;52.878;6.168;2023-02-12T03:25:37;5.10;99.90
59148;DHT22;44930;52.878;6.168;2023-02-12T03:28:05;4.80;99.90
59148;DHT22;44930;52.878;6.168;2023-02-12T03:30:48;5.00;99.90
59148;DHT22;44930;52.878;6.168;2023-02-12T03:33:19;4.60;99.90
59148;DHT22;44930;52.878;6.168;2023-02-12T03:36:01;4.50;99.90
59148;DHT22;44930;52.878;6.168;2023-02-12T03:38:44;5.00;99.90
59148;DHT22;44930;52.878;6.168;2023-02-12T03:43:58;4.90;99.90
59148;DHT22;44930;52.878;6.168;2023-02-12T03:46:42;4.40;99.90
59148;DHT22;44930;52.878;6.168;2023-02-12T03:49:33;4.70;99.90
59148;DHT22;44930;52.878;6.168;2023-02-12T03:52:02;4.70;99.90
59148;DHT22;44930;52.878;6.168;2023-02-12T03:54:28;4.60;99.90
59148;DHT22;44930;52.878;6.168;2023-02-12T03:59:26;4.70;99.90
59148;DHT22;44930;52.878;6.168;2023-02-12T04:01:54;4.60;99.90
59148;DHT22;44930;52.878;6.168;2023-02-12T04:04:23;4.70;99.90
59148;DHT22;44930;52.878;6.168;2023-02-12T04:06:49;4.70;99.90
59148;DHT22;44930;52.878;6.168;2023-02-12T04:09:15;4.70;99.90
59148;DHT22;44930;52.878;6.168;2023-02-12T04:14:42;4.60;99.90
59148;DHT22;44930;52.878;6.168;2023-02-12T04:23:20;4.70;99.90
59148;DHT22;44930;52.878;6.168;2023-02-12T04:25:56;4.60;99.90
59148;DHT22;44930;52.878;6.168;2023-02-12T04:34:04;4.60;99.90
59148;DHT22;44930;52.878;6.168;2023-02-12T04:36:36;4.60;99.90
59148;DHT22;44930;52.878;6.168;2023-02-12T04:41:37;4.60;99.90
59148;DHT22;44930;52.878;6.168;2023-02-12T04:44:24;4.70;99.90
59148;DHT22;44930;52.878;6.168;2023-02-12T04:46:50;4.70;99.90
59148;DHT22;44930;52.878;6.168;2023-02-12T04:49:18;4.60;99.90
59148;DHT22;44930;52.878;6.168;2023-02-12T04:54:11;4.70;99.90
59148;DHT22;44930;52.878;6.168;2023-02-12T04:56:37;4.60;99.90
59148;DHT22;44930;52.878;6.168;2023-02-12T04:59:03;4.70;99.90
59148;DHT22;44930;52.878;6.168;2023-02-12T05:01:29;4.60;99.90
59148;DHT22;44930;52.878;6.168;2023-02-12T05:03:55;4.60;99.90
59148;DHT22;44930;52.878;6.168;2023-02-12T05:08:46;4.60;99.90
59148;DHT22;44930;52.878;6.168;2023-02-12T05:11:12;4.50;99.90
59148;DHT22;44930;52.878;6.168;2023-02-12T05:13:38;4.60;99.90
59148;DHT22;44930;52.878;6.168;2023-02-12T05:16:05;4.50;99.90
59148;DHT22;44930;52.878;6.168;2023-02-12T05:18:32;4.70;99.90
59148;DHT22;44930;52.878;6.168;2023-02-12T05:20:59;4.50;99.90
59148;DHT22;44930;52.878;6.168;2023-02-12T05:23:27;4.60;99.90
59148;DHT22;44930;52.878;6.168;2023-02-12T05:25:53;4.40;99.90
59148;DHT22;44930;52.878;6.168;2023-02-12T05:28:18;4.50;99.90
59148;DHT22;44930;52.878;6.168;2023-02-12T05:30:44;4.70;99.90
59148;DHT22;44930;52.878;6.168;2023-02-12T05:35:35;4.50;99.90
59148;DHT22;44930;52.878;6.168;2023-02-12T05:38:01;4.60;99.90
59148;DHT22;44930;52.878;6.168;2023-02-12T05:40:27;4.60;99.90
59148;DHT22;44930;52.878;6.168;2023-02-12T05:50:10;4.50;99.90
59148;DHT22;44930;52.878;6.168;2023-02-12T05:52:36;4.60;99.90
59148;DHT22;44930;52.878;6.168;2023-02-12T05:57:27;4.70;99.90
59148;DHT22;44930;52.878;6.168;2023-02-12T05:59:53;4.70;99.90
59148;DHT22;44930;52.878;6.168;2023-02-12T06:02:19;4.80;99.90
59148;DHT22;44930;52.878;6.168;2023-02-12T06:04:44;4.60;99.90
59148;DHT22;44930;52.878;6.168;2023-02-12T06:07:10;4.70;99.90
59148;DHT22;44930;52.878;6.168;2023-02-12T06:09:36;4.70;99.90
59148;DHT22;44930;52.878;6.168;2023-02-12T06:14:27;4.70;99.90
59148;DHT22;44930;52.878;6.168;2023-02-12T06:16:53;4.70;99.90
59148;DHT22;44930;52.878;6.168;2023-02-12T06:19:19;4.70;99.90
59148;DHT22;44930;52.878;6.168;2023-02-12T06:21:45;4.70;99.90
59148;DHT22;44930;52.878;6.168;2023-02-12T06:24:12;4.80;99.90
59148;DHT22;44930;52.878;6.168;2023-02-12T06:29:04;4.70;99.90
59148;DHT22;44930;52.878;6.168;2023-02-12T06:31:31;4.80;99.90
59148;DHT22;44930;52.878;6.168;2023-02-12T06:34:00;4.70;99.90
59148;DHT22;44930;52.878;6.168;2023-02-12T06:36:26;4.80;99.90
59148;DHT22;44930;52.878;6.168;2023-02-12T06:38:51;4.80;99.90
59148;DHT22;44930;52.878;6.168;2023-02-12T06:41:17;4.90;99.90
59148;DHT22;44930;52.878;6.168;2023-02-12T06:43:43;4.80;99.90
59148;DHT22;44930;52.878;6.168;2023-02-12T06:46:10;4.90;99.90
59148;DHT22;44930;52.878;6.168;2023-02-12T06:48:35;4.90;99.90
59148;DHT22;44930;52.878;6.168;2023-02-12T06:53:34;5.00;99.90
59148;DHT22;44930;52.878;6.168;2023-02-12T06:56:04;4.90;99.90
59148;DHT22;44930;52.878;6.168;2023-02-12T06:58:30;5.00;99.90
59148;DHT22;44930;52.878;6.168;2023-02-12T07:01:06;5.40;99.90
59148;DHT22;44930;52.878;6.168;2023-02-12T07:03:31;5.00;99.90
59148;DHT22;44930;52.878;6.168;2023-02-12T07:05:57;5.00;99.90
59148;DHT22;44930;52.878;6.168;2023-02-12T07:08:22;5.00;99.90
59148;DHT22;44930;52.878;6.168;2023-02-12T07:13:14;5.00;99.90
59148;DHT22;44930;52.878;6.168;2023-02-12T07:15:40;5.00;99.90
59148;DHT22;44930;52.878;6.168;2023-02-12T07:18:05;5.10;99.90
59148;DHT22;44930;52.878;6.168;2023-02-12T07:20:31;5.20;99.90
59148;DHT22;44930;52.878;6.168;2023-02-12T07:22:56;5.20;99.90
59148;DHT22;44930;52.878;6.168;2023-02-12T07:25:22;5.20;99.90
59148;DHT22;44930;52.878;6.168;2023-02-12T07:27:47;5.20;99.90
59148;DHT22;44930;52.878;6.168;2023-02-12T07:30:13;5.20;99.90
59148;DHT22;44930;52.878;6.168;2023-02-12T07:35:05;5.30;99.90
59148;DHT22;44930;52.878;6.168;2023-02-12T07:37:31;5.30;99.90
59148;DHT22;44930;52.878;6.168;2023-02-12T07:39:57;5.20;99.90
59148;DHT22;44930;52.878;6.168;2023-02-12T07:42:23;5.30;99.90
59148;DHT22;44930;52.878;6.168;2023-02-12T07:44:48;5.40;99.90
59148;DHT22;44930;52.878;6.168;2023-02-12T07:49:41;5.40;99.90
59148;DHT22;44930;52.878;6.168;2023-02-12T07:52:06;5.40;99.90
59148;DHT22;44930;52.878;6.168;2023-02-12T07:54:32;5.50;99.90
59148;DHT22;44930;52.878;6.168;2023-02-12T07:56:57;5.50;99.90
59148;DHT22;44930;52.878;6.168;2023-02-12T07:59:24;5.50;99.90
59148;DHT22;44930;52.878;6.168;2023-02-12T08:01:51;5.70;99.90
59148;DHT22;44930;52.878;6.168;2023-02-12T08:04:20;5.50;99.90
59148;DHT22;44930;52.878;6.168;2023-02-12T08:06:48;5.60;99.90
59148;DHT22;44930;52.878;6.168;2023-02-12T08:09:17;5.70;99.90
59148;DHT22;44930;52.878;6.168;2023-02-12T08:11:43;5.70;99.90
59148;DHT22;44930;52.878;6.168;2023-02-12T08:16:40;5.80;99.90
59148;DHT22;44930;52.878;6.168;2023-02-12T08:19:07;5.90;99.90
59148;DHT22;44930;52.878;6.168;2023-02-12T08:21:33;5.90;99.90
59148;DHT22;44930;52.878;6.168;2023-02-12T08:23:59;5.90;99.90
59148;DHT22;44930;52.878;6.168;2023-02-12T08:26:35;5.70;99.90
59148;DHT22;44930;52.878;6.168;2023-02-12T08:29:11;6.50;99.90
59148;DHT22;44930;52.878;6.168;2023-02-12T08:31:40;6.00;99.90
59148;DHT22;44930;52.878;6.168;2023-02-12T08:34:06;6.00;99.90
59148;DHT22;44930;52.878;6.168;2023-02-12T08:36:38;6.00;99.90
59148;DHT22;44930;52.878;6.168;2023-02-12T08:39:04;6.20;99.90
59148;DHT22;44930;52.878;6.168;2023-02-12T08:46:27;6.40;99.90
59148;DHT22;44930;52.878;6.168;2023-02-12T08:48:54;6.40;99.90
59148;DHT22;44930;52.878;6.168;2023-02-12T08:53:52;6.50;99.90
59148;DHT22;44930;52.878;6.168;2023-02-12T08:58:44;6.60;99.90
59148;DHT22;44930;52.878;6.168;2023-02-12T09:01:13;6.80;99.90
59148;DHT22;44930;52.878;6.168;2023-02-12T09:06:07;6.70;99.90
59148;DHT22;44930;52.878;6.168;2023-02-12T09:08:33;6.80;99.90
59148;DHT22;44930;52.878;6.168;2023-02-12T09:11:04;6.90;99.90
59148;DHT22;44930;52.878;6.168;2023-02-12T09:13:30;7.00;99.90
59148;DHT22;44930;52.878;6.168;2023-02-12T09:15:55;7.00;99.90
59148;DHT22;44930;52.878;6.168;2023-02-12T09:18:21;7.20;99.90
59148;DHT22;44930;52.878;6.168;2023-02-12T09:20:46;7.20;99.90
59148;DHT22;44930;52.878;6.168;2023-02-12T09:23:13;7.30;99.90
59148;DHT22;44930;52.878;6.168;2023-02-12T09:25:44;7.50;99.90
59148;DHT22;44930;52.878;6.168;2023-02-12T09:28:11;7.40;99.90
59148;DHT22;44930;52.878;6.168;2023-02-12T09:30:37;7.30;99.90
59148;DHT22;44930;52.878;6.168;2023-02-12T09:33:05;7.50;99.90
59148;DHT22;44930;52.878;6.168;2023-02-12T09:35:34;7.60;99.90
59148;DHT22;44930;52.878;6.168;2023-02-12T09:38:00;7.50;99.90
59148;DHT22;44930;52.878;6.168;2023-02-12T09:40:38;7.70;99.90
59148;DHT22;44930;52.878;6.168;2023-02-12T09:46:29;7.60;99.90
59148;DHT22;44930;52.878;6.168;2023-02-12T09:48:37;7.60;99.90
59148;DHT22;44930;52.878;6.168;2023-02-12T09:51:06;7.60;99.90
59148;DHT22;44930;52.878;6.168;2023-02-12T09:53:38;7.30;99.90
59148;DHT22;44930;52.878;6.168;2023-02-12T09:56:12;7.60;99.90
59148;DHT22;44930;52.878;6.168;2023-02-12T10:01:19;7.90;99.90
59148;DHT22;44930;52.878;6.168;2023-02-12T10:03:47;7.70;99.90
59148;DHT22;44930;52.878;6.168;2023-02-12T10:06:19;7.70;99.90
59148;DHT22;44930;52.878;6.168;2023-02-12T10:08:46;7.70;99.90
59148;DHT22;44930;52.878;6.168;2023-02-12T10:14:37;8.10;99.90
59148;DHT22;44930;52.878;6.168;2023-02-12T10:20:29;8.20;99.90
59148;DHT22;44930;52.878;6.168;2023-02-12T10:25:58;8.10;99.90
59148;DHT22;44930;52.878;6.168;2023-02-12T10:28:27;8.10;99.90
59148;DHT22;44930;52.878;6.168;2023-02-12T10:31:08;8.10;99.90
59148;DHT22;44930;52.878;6.168;2023-02-12T10:33:47;7.90;99.90
59148;DHT22;44930;52.878;6.168;2023-02-12T10:36:41;7.90;99.90
59148;DHT22;44930;52.878;6.168;2023-02-12T10:41:54;8.60;99.90
59148;DHT22;44930;52.878;6.168;2023-02-12T10:46:46;8.40;99.90
59148;DHT22;44930;52.878;6.168;2023-02-12T10:49:14;8.40;99.90
59148;DHT22;44930;52.878;6.168;2023-02-12T10:54:40;8.30;99.90
59148;DHT22;44930;52.878;6.168;2023-02-12T10:57:13;8.50;99.90
59148;DHT22;44930;52.878;6.168;2023-02-12T10:59:41;8.60;99.90
59148;DHT22;44930;52.878;6.168;2023-02-12T11:04:50;8.70;99.90
59148;DHT22;44930;52.878;6.168;2023-02-12T11:07:16;8.60;99.90
59148;DHT22;44930;52.878;6.168;2023-02-12T11:12:35;8.80;99.90
59148;DHT22;44930;52.878;6.168;2023-02-12T11:15:22;9.00;99.90
59148;DHT22;44930;52.878;6.168;2023-02-12T11:20:36;8.90;99.90
59148;DHT22;44930;52.878;6.168;2023-02-12T11:23:05;8.90;99.90
59148;DHT22;44930;52.878;6.168;2023-02-12T11:25:34;8.90;99.90
59148;DHT22;44930;52.878;6.168;2023-02-12T11:28:17;8.80;99.90
59148;DHT22;44930;52.878;6.168;2023-02-12T11:30:53;8.70;99.90
59148;DHT22;44930;52.878;6.168;2023-02-12T11:33:23;8.80;99.90
59148;DHT22;44930;52.878;6.168;2023-02-12T11:35:52;8.50;99.90
59148;DHT22;44930;52.878;6.168;2023-02-12T11:38:23;8.80;99.90
59148;DHT22;44930;52.878;6.168;2023-02-12T11:40:52;8.90;99.90
59148;DHT22;44930;52.878;6.168;2023-02-12T11:43:18;8.80;99.90
59148;DHT22;44930;52.878;6.168;2023-02-12T11:45:48;8.90;99.90
59148;DHT22;44930;52.878;6.168;2023-02-12T11:48:26;8.80;99.90
59148;DHT22;44930;52.878;6.168;2023-02-12T11:50:56;8.90;99.90
59148;DHT22;44930;52.878;6.168;2023-02-12T11:53:26;8.80;99.90
59148;DHT22;44930;52.878;6.168;2023-02-12T11:55:56;8.90;99.90
59148;DHT22;44930;52.878;6.168;2023-02-12T11:58:24;8.90;99.90
59148;DHT22;44930;52.878;6.168;2023-02-12T12:06:39;9.10;99.90
59148;DHT22;44930;52.878;6.168;2023-02-12T12:09:46;9.40;99.90
59148;DHT22;44930;52.878;6.168;2023-02-12T12:12:11;9.30;99.90
59148;DHT22;44930;52.878;6.168;2023-02-12T12:14:44;9.30;99.90
59148;DHT22;44930;52.878;6.168;2023-02-12T12:20:22;9.40;99.90
59148;DHT22;44930;52.878;6.168;2023-02-12T12:23:04;9.00;99.90
59148;DHT22;44930;52.878;6.168;2023-02-12T12:25:48;9.30;99.90
59148;DHT22;44930;52.878;6.168;2023-02-12T12:28:47;9.70;99.90
59148;DHT22;44930;52.878;6.168;2023-02-12T12:34:18;9.90;99.90
59148;DHT22;44930;52.878;6.168;2023-02-12T12:39:52;9.60;99.90
59148;DHT22;44930;52.878;6.168;2023-02-12T13:05:22;9.70;99.90
59148;DHT22;44930;52.878;6.168;2023-02-12T13:08:11;9.60;99.90
59148;DHT22;44930;52.878;6.168;2023-02-12T13:10:47;9.40;99.90
59148;DHT22;44930;52.878;6.168;2023-02-12T13:13:25;9.40;99.90
59148;DHT22;44930;52.878;6.168;2023-02-12T13:19:05;9.60;99.90
59148;DHT22;44930;52.878;6.168;2023-02-12T13:21:50;9.50;99.90
59148;DHT22;44930;52.878;6.168;2023-02-12T13:29:50;9.40;99.90
59148;DHT22;44930;52.878;6.168;2023-02-12T13:32:24;9.70;99.90
59148;DHT22;44930;52.878;6.168;2023-02-12T13:34:53;9.50;99.90
59148;DHT22;44930;52.878;6.168;2023-02-12T13:37:41;9.50;99.90
59148;DHT22;44930;52.878;6.168;2023-02-12T13:40:16;9.60;99.90
59148;DHT22;44930;52.878;6.168;2023-02-12T13:48:32;9.30;99.90
59148;DHT22;44930;52.878;6.168;2023-02-12T14:01:55;9.30;99.90
59148;DHT22;44930;52.878;6.168;2023-02-12T14:04:39;9.60;99.90
59148;DHT22;44930;52.878;6.168;2023-02-12T14:07:08;9.40;99.90
59148;DHT22;44930;52.878;6.168;2023-02-12T14:14:52;9.40;99.90
59148;DHT22;44930;52.878;6.168;2023-02-12T14:27:58;9.10;99.90
59148;DHT22;44930;52.878;6.168;2023-02-12T14:33:09;8.80;99.90
59148;DHT22;44930;52.878;6.168;2023-02-12T14:40:51;8.80;99.90
59148;DHT22;44930;52.878;6.168;2023-02-12T14:51:43;8.70;99.90
59148;DHT22;44930;52.878;6.168;2023-02-12T14:54:59;8.70;99.90
59148;DHT22;44930;52.878;6.168;2023-02-12T14:57:06;9.10;99.90
59148;DHT22;44930;52.878;6.168;2023-02-12T14:59:37;8.70;99.90
59148;DHT22;44930;52.878;6.168;2023-02-12T15:02:05;8.80;99.90
59148;DHT22;44930;52.878;6.168;2023-02-12T15:04:36;8.70;99.90
59148;DHT22;44930;52.878;6.168;2023-02-12T15:07:06;8.70;99.90
59148;DHT22;44930;52.878;6.168;2023-02-12T15:09:41;8.80;99.90
59148;DHT22;44930;52.878;6.168;2023-02-12T15:12:18;8.80;99.90
59148;DHT22;44930;52.878;6.168;2023-02-12T15:14:50;9.10;99.90
59148;DHT22;44930;52.878;6.168;2023-02-12T15:17:27;8.80;99.90
59148;DHT22;44930;52.878;6.168;2023-02-12T15:25:22;8.80;99.90
59148;DHT22;44930;52.878;6.168;2023-02-12T15:27:50;8.70;99.90
59148;DHT22;44930;52.878;6.168;2023-02-12T15:32:50;8.60;99.90
59148;DHT22;44930;52.878;6.168;2023-02-12T15:37:48;8.60;99.90
59148;DHT22;44930;52.878;6.168;2023-02-12T15:40:15;8.60;99.90
59148;DHT22;44930;52.878;6.168;2023-02-12T15:42:54;8.60;99.90
59148;DHT22;44930;52.878;6.168;2023-02-12T15:45:26;8.50;99.90
59148;DHT22;44930;52.878;6.168;2023-02-12T15:48:00;8.70;99.90
59148;DHT22;44930;52.878;6.168;2023-02-12T15:50:27;8.40;99.90
59148;DHT22;44930;52.878;6.168;2023-02-12T15:52:53;8.50;99.90
59148;DHT22;44930;52.878;6.168;2023-02-12T15:55:24;8.40;99.90
59148;DHT22;44930;52.878;6.168;2023-02-12T15:57:59;8.40;99.90
59148;DHT22;44930;52.878;6.168;2023-02-12T16:00:44;8.80;99.90
59148;DHT22;44930;52.878;6.168;2023-02-12T16:03:25;8.40;99.90
59148;DHT22;44930;52.878;6.168;2023-02-12T16:05:51;8.40;99.90
59148;DHT22;44930;52.878;6.168;2023-02-12T16:08:21;8.40;99.90
59148;DHT22;44930;52.878;6.168;2023-02-12T16:13:30;8.20;99.90
59148;DHT22;44930;52.878;6.168;2023-02-12T16:18:39;8.40;99.90
59148;DHT22;44930;52.878;6.168;2023-02-12T16:21:12;8.40;99.90
59148;DHT22;44930;52.878;6.168;2023-02-12T16:26:16;8.40;99.90
59148;DHT22;44930;52.878;6.168;2023-02-12T16:28:46;8.30;99.90
59148;DHT22;44930;52.878;6.168;2023-02-12T16:31:14;8.20;99.90
59148;DHT22;44930;52.878;6.168;2023-02-12T16:33:41;8.20;99.90
59148;DHT22;44930;52.878;6.168;2023-02-12T16:36:26;8.30;99.90
59148;DHT22;44930;52.878;6.168;2023-02-12T16:38:54;8.20;99.90
59148;DHT22;44930;52.878;6.168;2023-02-12T16:41:51;8.10;99.90
59148;DHT22;44930;52.878;6.168;2023-02-12T16:44:22;8.10;99.90
59148;DHT22;44930;52.878;6.168;2023-02-12T16:46:58;8.20;99.90
59148;DHT22;44930;52.878;6.168;2023-02-12T16:49:25;8.10;99.90
59148;DHT22;44930;52.878;6.168;2023-02-12T16:51:52;8.00;99.90
59148;DHT22;44930;52.878;6.168;2023-02-12T16:54:38;7.60;99.90
59148;DHT22;44930;52.878;6.168;2023-02-12T16:57:03;7.90;99.90
59148;DHT22;44930;52.878;6.168;2023-02-12T16:59:29;7.90;99.90
59148;DHT22;44930;52.878;6.168;2023-02-12T17:02:05;8.00;99.90
59148;DHT22;44930;52.878;6.168;2023-02-12T17:04:31;8.00;99.90
59148;DHT22;44930;52.878;6.168;2023-02-12T17:06:57;8.10;99.90
59148;DHT22;44930;52.878;6.168;2023-02-12T17:09:22;7.80;99.90
59148;DHT22;44930;52.878;6.168;2023-02-12T17:11:48;8.00;99.90
59148;DHT22;44930;52.878;6.168;2023-02-12T17:14:16;7.70;99.90
59148;DHT22;44930;52.878;6.168;2023-02-12T17:16:43;7.90;99.90
59148;DHT22;44930;52.878;6.168;2023-02-12T17:19:08;7.90;99.90
59148;DHT22;44930;52.878;6.168;2023-02-12T17:24:18;8.10;99.90
59148;DHT22;44930;52.878;6.168;2023-02-12T17:26:45;7.90;99.90
59148;DHT22;44930;52.878;6.168;2023-02-12T17:31:37;7.90;99.90
59148;DHT22;44930;52.878;6.168;2023-02-12T17:34:04;7.90;99.90
59148;DHT22;44930;52.878;6.168;2023-02-12T17:36:30;7.80;99.90
59148;DHT22;44930;52.878;6.168;2023-02-12T17:38:55;7.80;99.90
59148;DHT22;44930;52.878;6.168;2023-02-12T17:41:21;7.80;99.90
59148;DHT22;44930;52.878;6.168;2023-02-12T17:43:46;7.80;99.90
59148;DHT22;44930;52.878;6.168;2023-02-12T17:46:19;7.80;99.90
59148;DHT22;44930;52.878;6.168;2023-02-12T17:48:45;7.80;99.90
59148;DHT22;44930;52.878;6.168;2023-02-12T17:51:10;7.70;99.90
59148;DHT22;44930;52.878;6.168;2023-02-12T17:56:03;7.80;99.90
59148;DHT22;44930;52.878;6.168;2023-02-12T17:58:29;7.70;99.90
59148;DHT22;44930;52.878;6.168;2023-02-12T18:03:21;7.70;99.90
59148;DHT22;44930;52.878;6.168;2023-02-12T18:05:47;7.80;99.90
59148;DHT22;44930;52.878;6.168;2023-02-12T18:08:12;7.70;99.90
59148;DHT22;44930;52.878;6.168;2023-02-12T18:10:42;7.80;99.90
59148;DHT22;44930;52.878;6.168;2023-02-12T18:13:09;7.60;99.90
59148;DHT22;44930;52.878;6.168;2023-02-12T18:15:35;7.70;99.90
59148;DHT22;44930;52.878;6.168;2023-02-12T18:18:01;7.60;99.90
59148;DHT22;44930;52.878;6.168;2023-02-12T18:20:26;7.60;99.90
59148;DHT22;44930;52.878;6.168;2023-02-12T18:22:53;7.70;99.90
59148;DHT22;44930;52.878;6.168;2023-02-12T18:25:18;7.60;99.90
59148;DHT22;44930;52.878;6.168;2023-02-12T18:27:44;7.60;99.90
59148;DHT22;44930;52.878;6.168;2023-02-12T18:30:10;7.60;99.90
59148;DHT22;44930;52.878;6.168;2023-02-12T18:32:36;7.60;99.90
59148;DHT22;44930;52.878;6.168;2023-02-12T18:35:03;7.60;99.90
59148;DHT22;44930;52.878;6.168;2023-02-12T18:37:28;7.60;99.90
59148;DHT22;44930;52.878;6.168;2023-02-12T18:39:54;7.60;99.90
59148;DHT22;44930;52.878;6.168;2023-02-12T18:42:19;7.70;99.90
59148;DHT22;44930;52.878;6.168;2023-02-12T18:44:45;7.60;99.90
59148;DHT22;44930;52.878;6.168;2023-02-12T18:47:10;7.60;99.90
59148;DHT22;44930;52.878;6.168;2023-02-12T18:49:36;7.60;99.90
59148;DHT22;44930;52.878;6.168;2023-02-12T18:52:02;7.60;99.90
59148;DHT22;44930;52.878;6.168;2023-02-12T18:54:27;7.60;99.90
59148;DHT22;44930;52.878;6.168;2023-02-12T18:56:53;7.50;99.90
59148;DHT22;44930;52.878;6.168;2023-02-12T19:01:46;7.50;99.90
59148;DHT22;44930;52.878;6.168;2023-02-12T19:04:13;7.50;99.90
59148;DHT22;44930;52.878;6.168;2023-02-12T19:06:43;7.40;99.90
59148;DHT22;44930;52.878;6.168;2023-02-12T19:09:10;7.50;99.90
59148;DHT22;44930;52.878;6.168;2023-02-12T19:11:36;7.40;99.90
59148;DHT22;44930;52.878;6.168;2023-02-12T19:14:02;7.50;99.90
59148;DHT22;44930;52.878;6.168;2023-02-12T19:16:28;7.50;99.90
59148;DHT22;44930;52.878;6.168;2023-02-12T19:18:55;7.40;99.90
59148;DHT22;44930;52.878;6.168;2023-02-12T19:23:54;7.60;99.90
59148;DHT22;44930;52.878;6.168;2023-02-12T19:26:21;7.60;99.90
59148;DHT22;44930;52.878;6.168;2023-02-12T19:28:47;7.50;99.90
59148;DHT22;44930;52.878;6.168;2023-02-12T19:33:40;7.50;99.90
59148;DHT22;44930;52.878;6.168;2023-02-12T19:36:08;7.50;99.90
59148;DHT22;44930;52.878;6.168;2023-02-12T19:38:35;7.50;99.90
59148;DHT22;44930;52.878;6.168;2023-02-12T19:41:04;7.50;99.90
59148;DHT22;44930;52.878;6.168;2023-02-12T19:43:30;7.50;99.90
59148;DHT22;44930;52.878;6.168;2023-02-12T19:46:08;7.40;99.90
59148;DHT22;44930;52.878;6.168;2023-02-12T19:48:34;7.40;99.90
59148;DHT22;44930;52.878;6.168;2023-02-12T19:51:00;7.40;99.90
59148;DHT22;44930;52.878;6.168;2023-02-12T19:53:26;7.30;99.90
59148;DHT22;44930;52.878;6.168;2023-02-12T19:55:52;7.40;99.90
59148;DHT22;44930;52.878;6.168;2023-02-12T19:58:18;7.40;99.90
59148;DHT22;44930;52.878;6.168;2023-02-12T20:00:44;7.30;99.90
59148;DHT22;44930;52.878;6.168;2023-02-12T20:05:38;7.40;99.90
59148;DHT22;44930;52.878;6.168;2023-02-12T20:08:10;7.40;99.90
59148;DHT22;44930;52.878;6.168;2023-02-12T20:10:38;7.40;99.90
59148;DHT22;44930;52.878;6.168;2023-02-12T20:15:31;7.70;99.90
59148;DHT22;44930;52.878;6.168;2023-02-12T20:17:57;7.40;99.90
59148;DHT22;44930;52.878;6.168;2023-02-12T20:20:23;7.40;99.90
59148;DHT22;44930;52.878;6.168;2023-02-12T20:22:49;7.50;99.90
59148;DHT22;44930;52.878;6.168;2023-02-12T20:25:14;7.30;99.90
59148;DHT22;44930;52.878;6.168;2023-02-12T20:27:40;7.40;99.90
59148;DHT22;44930;52.878;6.168;2023-02-12T20:30:06;7.50;99.90
59148;DHT22;44930;52.878;6.168;2023-02-12T20:32:33;7.40;99.90
59148;DHT22;44930;52.878;6.168;2023-02-12T20:34:58;7.40;99.90